Time;durP1;ratioP1;P1;durP2;ratioP2;P2;SDS_P1;SDS_P2;PMS_P1;PMS_P2;Temp;Humidity;BMP_temperature;BMP_pressure;BME280_temperature;BME280_humidity;BME280_pressure;Samples;Min_cycle;Max_cycle;Signal;HPM_P1;HPM_P2
2022/09/17 00:01:04;;;;;;;;;0.00;0.00;;;;;;;;5039754;28;11300;-80
2022/09/17 00:03:32;;;;;;;;;2.00;0.25;;;;;;;;5038864;28;10460;-81
2022/09/17 00:06:01;;;;;;;;;0.00;0.00;;;;;;;;5038374;28;10591;-80
2022/09/17 00:08:29;;;;;;;;;0.25;0.00;;;;;;;;5039722;28;10564;-79
2022/09/17 00:10:56;;;;;;;;;0.00;0.00;;;;;;;;5039952;28;10527;-80
2022/09/17 00:13:26;;;;;;;;;1.00;0.00;;;;;;;;5042237;28;11297;-80
2022/09/17 00:15:53;;;;;;;;;0.00;0.00;;;;;;;;5022984;28;10616;-80
2022/09/17 00:18:20;;;;;;;;;0.25;0.25;;;;;;;;5024403;28;11364;-80
2022/09/17 00:20:48;;;;;;;;;0.50;0.50;;;;;;;;5040620;28;10605;-79
2022/09/17 00:23:15;;;;;;;;;0.00;0.00;;;;;;;;5036360;28;10723;-79
2022/09/17 00:25:44;;;;;;;;;1.00;1.00;;;;;;;;5020750;28;10613;-79
2022/09/17 00:28:12;;;;;;;;;1.25;0.00;;;;;;;;5038303;28;10627;-79
2022/09/17 00:30:41;;;;;;;;;0.00;0.00;;;;;;;;5021552;28;10575;-80
2022/09/17 00:33:09;;;;;;;;;0.00;0.00;;;;;;;;5040313;28;11349;-79
2022/09/17 00:35:36;;;;;;;;;0.00;0.00;;;;;;;;5041706;28;10575;-79
2022/09/17 00:38:03;;;;;;;;;0.75;0.75;;;;;;;;5041792;28;10564;-80
2022/09/17 00:40:34;;;;;;;;;1.25;0.00;;;;;;;;5041901;28;11423;-80
2022/09/17 00:43:02;;;;;;;;;0.00;0.00;;;;;;;;5035042;28;10539;-81
2022/09/17 00:45:32;;;;;;;;;0.00;0.00;;;;;;;;5038993;28;10741;-80
2022/09/17 00:48:03;;;;;;;;;0.75;0.75;;;;;;;;5044360;28;10735;-80
2022/09/17 00:50:34;;;;;;;;;1.00;0.00;;;;;;;;5040779;28;10634;-79
2022/09/17 00:53:05;;;;;;;;;1.75;0.25;;;;;;;;5034771;28;10562;-80
2022/09/17 00:55:35;;;;;;;;;0.00;0.00;;;;;;;;5043070;28;10598;-80
2022/09/17 00:58:04;;;;;;;;;1.00;1.00;;;;;;;;5043377;28;10613;-80
2022/09/17 01:00:32;;;;;;;;;1.00;1.00;;;;;;;;5041863;28;11463;-81
2022/09/17 01:03:01;;;;;;;;;0.00;0.00;;;;;;;;5043617;28;10801;-78
2022/09/17 01:05:32;;;;;;;;;0.00;0.00;;;;;;;;5045669;28;10640;-78
2022/09/17 01:08:07;;;;;;;;;0.00;0.00;;;;;;;;5036703;28;10799;-78
2022/09/17 01:11:04;;;;;;;;;0.25;0.00;;;;;;;;5021299;28;10692;-79
2022/09/17 01:13:38;;;;;;;;;0.00;0.00;;;;;;;;5027233;28;10772;-79
2022/09/17 01:16:13;;;;;;;;;0.00;0.00;;;;;;;;5037872;28;11722;-79
2022/09/17 01:18:59;;;;;;;;;1.00;1.00;;;;;;;;5038230;28;11359;-78
2022/09/17 01:21:49;;;;;;;;;0.00;0.00;;;;;;;;5041097;28;10728;-80
2022/09/17 01:24:47;;;;;;;;;2.50;1.75;;;;;;;;5035664;28;10852;-79
2022/09/17 01:27:58;;;;;;;;;0.00;0.00;;;;;;;;5042487;28;11622;-78
2022/09/17 01:30:39;;;;;;;;;0.25;0.25;;;;;;;;5038011;28;10675;-78
2022/09/17 01:33:13;;;;;;;;;0.00;0.00;;;;;;;;5024789;28;10881;-79
2022/09/17 01:35:49;;;;;;;;;0.25;0.25;;;;;;;;5042264;28;10853;-79
2022/09/17 01:38:25;;;;;;;;;1.00;1.00;;;;;;;;5042667;28;10784;-78
2022/09/17 01:40:56;;;;;;;;;0.00;0.00;;;;;;;;5033195;28;10765;-78
2022/09/17 01:43:26;;;;;;;;;0.00;0.00;;;;;;;;5041958;28;10709;-78
2022/09/17 01:46:00;;;;;;;;;1.00;1.00;;;;;;;;5020930;28;10755;-79
2022/09/17 01:48:32;;;;;;;;;3.00;0.00;;;;;;;;5026339;28;10688;-78
2022/09/17 01:51:05;;;;;;;;;0.00;0.00;;;;;;;;5041542;28;10617;-78
2022/09/17 01:53:38;;;;;;;;;0.00;0.00;;;;;;;;5031797;28;10800;-77
2022/09/17 01:56:07;;;;;;;;;0.00;0.00;;;;;;;;5039032;28;10699;-79
2022/09/17 01:58:38;;;;;;;;;2.25;0.75;;;;;;;;5019171;28;10703;-79
2022/09/17 02:01:09;;;;;;;;;0.00;0.00;;;;;;;;5036583;28;10481;-80
2022/09/17 02:03:41;;;;;;;;;0.00;0.00;;;;;;;;5049621;28;10580;-79
2022/09/17 02:06:13;;;;;;;;;0.00;0.00;;;;;;;;5041107;28;11458;-79
2022/09/17 02:08:46;;;;;;;;;0.00;0.00;;;;;;;;5038087;28;10677;-80
2022/09/17 02:11:16;;;;;;;;;0.00;0.00;;;;;;;;5038068;28;10570;-81
2022/09/17 02:13:48;;;;;;;;;5.25;0.00;;;;;;;;5037364;28;10558;-80
2022/09/17 02:16:19;;;;;;;;;0.00;0.00;;;;;;;;5040312;28;10683;-80
2022/09/17 02:18:50;;;;;;;;;0.00;0.00;;;;;;;;5040509;28;10698;-80
2022/09/17 02:21:23;;;;;;;;;0.00;0.00;;;;;;;;5031590;28;10817;-80
2022/09/17 02:24:07;;;;;;;;;0.00;0.00;;;;;;;;5029390;28;11559;-80
2022/09/17 02:26:37;;;;;;;;;0.00;0.00;;;;;;;;5041945;28;10703;-79
2022/09/17 02:29:10;;;;;;;;;0.00;0.00;;;;;;;;5036280;28;10771;-79
2022/09/17 02:31:41;;;;;;;;;0.25;0.25;;;;;;;;5040170;28;10812;-80
2022/09/17 02:34:09;;;;;;;;;0.00;0.00;;;;;;;;5038067;28;10962;-81
2022/09/17 02:36:36;;;;;;;;;0.00;0.00;;;;;;;;5044549;28;10630;-80
2022/09/17 02:39:05;;;;;;;;;0.00;0.00;;;;;;;;5040798;28;10688;-79
2022/09/17 02:41:43;;;;;;;;;1.00;1.00;;;;;;;;5057398;28;10804;-78
2022/09/17 02:44:18;;;;;;;;;1.75;0.25;;;;;;;;5039527;28;10648;-80
2022/09/17 02:47:25;;;;;;;;;0.00;0.00;;;;;;;;5041564;28;10635;-79
2022/09/17 02:50:13;;;;;;;;;0.00;0.00;;;;;;;;5034285;28;10663;-78
2022/09/17 02:52:49;;;;;;;;;0.00;0.00;;;;;;;;5043490;28;10729;-79
2022/09/17 02:55:20;;;;;;;;;0.00;0.00;;;;;;;;5043104;28;10767;-79
2022/09/17 02:57:52;;;;;;;;;0.00;0.00;;;;;;;;5040214;28;10809;-80
2022/09/17 03:00:22;;;;;;;;;0.00;0.00;;;;;;;;5016294;28;11693;-80
2022/09/17 03:02:55;;;;;;;;;1.00;1.00;;;;;;;;5040996;28;10799;-79
2022/09/17 03:05:24;;;;;;;;;0.00;0.00;;;;;;;;5042207;28;11427;-80
2022/09/17 03:07:52;;;;;;;;;1.75;1.00;;;;;;;;5041316;28;10715;-78
2022/09/17 03:10:19;;;;;;;;;2.00;0.50;;;;;;;;5042303;28;10828;-78
2022/09/17 03:12:46;;;;;;;;;0.00;0.00;;;;;;;;5042150;28;10739;-80
2022/09/17 03:15:13;;;;;;;;;0.00;0.00;;;;;;;;5040684;28;10759;-77
2022/09/17 03:17:41;;;;;;;;;0.00;0.00;;;;;;;;5038330;28;10860;-80
2022/09/17 03:20:08;;;;;;;;;0.00;0.00;;;;;;;;5042395;28;10681;-78
2022/09/17 03:22:37;;;;;;;;;2.25;1.00;;;;;;;;5041474;28;11572;-79
2022/09/17 03:25:05;;;;;;;;;0.00;0.00;;;;;;;;5041324;28;11036;-78
2022/09/17 03:27:32;;;;;;;;;0.50;0.50;;;;;;;;5039681;28;10905;-78
2022/09/17 03:29:59;;;;;;;;;0.00;0.00;;;;;;;;5039270;28;10818;-78
2022/09/17 03:32:26;;;;;;;;;0.75;0.75;;;;;;;;5041530;28;10694;-79
2022/09/17 03:34:54;;;;;;;;;0.50;0.00;;;;;;;;5050525;28;10775;-79
2022/09/17 03:37:22;;;;;;;;;0.50;0.00;;;;;;;;5042761;28;11537;-79
2022/09/17 03:39:51;;;;;;;;;2.00;0.25;;;;;;;;5040684;28;11030;-78
2022/09/17 03:42:18;;;;;;;;;2.00;0.00;;;;;;;;5041660;28;10986;-78
2022/09/17 03:44:45;;;;;;;;;1.00;1.00;;;;;;;;5040600;28;10901;-78
2022/09/17 03:47:15;;;;;;;;;1.50;0.00;;;;;;;;5041818;28;10833;-78
2022/09/17 03:49:42;;;;;;;;;0.00;0.00;;;;;;;;5032100;28;10848;-79
2022/09/17 03:52:10;;;;;;;;;0.50;0.50;;;;;;;;5041450;28;10908;-78
2022/09/17 03:54:37;;;;;;;;;0.00;0.00;;;;;;;;5031286;28;10860;-78
2022/09/17 03:57:06;;;;;;;;;4.00;1.00;;;;;;;;5021133;28;11029;-78
2022/09/17 03:59:33;;;;;;;;;0.00;0.00;;;;;;;;5042753;28;11010;-78
2022/09/17 04:02:01;;;;;;;;;0.00;0.00;;;;;;;;5042574;28;11054;-79
2022/09/17 04:04:31;;;;;;;;;0.00;0.00;;;;;;;;5044724;28;10987;-80
2022/09/17 04:06:58;;;;;;;;;0.00;0.00;;;;;;;;5045415;28;10896;-79
2022/09/17 04:09:26;;;;;;;;;0.00;0.00;;;;;;;;5036187;28;10906;-79
2022/09/17 04:11:53;;;;;;;;;0.00;0.00;;;;;;;;5047144;28;10819;-79
2022/09/17 04:14:21;;;;;;;;;0.00;0.00;;;;;;;;5043267;28;10901;-79
2022/09/17 04:16:49;;;;;;;;;3.00;1.00;;;;;;;;5046069;28;12252;-79
2022/09/17 04:19:16;;;;;;;;;2.00;0.50;;;;;;;;5042831;28;11054;-80
2022/09/17 04:21:43;;;;;;;;;1.00;1.00;;;;;;;;5042543;28;11159;-80
2022/09/17 04:24:10;;;;;;;;;0.00;0.00;;;;;;;;5042864;28;11166;-79
2022/09/17 04:26:38;;;;;;;;;0.25;0.25;;;;;;;;5042874;28;11108;-79
2022/09/17 04:29:05;;;;;;;;;1.00;1.00;;;;;;;;5043681;28;10971;-80
2022/09/17 04:31:33;;;;;;;;;0.00;0.00;;;;;;;;5042311;28;11208;-79
2022/09/17 04:34:01;;;;;;;;;0.25;0.25;;;;;;;;5036643;28;11329;-80
2022/09/17 04:36:28;;;;;;;;;0.00;0.00;;;;;;;;5041906;28;11242;-79
2022/09/17 04:38:56;;;;;;;;;1.75;1.75;;;;;;;;5044422;28;11476;-79
2022/09/17 04:41:23;;;;;;;;;1.00;1.00;;;;;;;;5044904;28;11279;-79
2022/09/17 04:43:50;;;;;;;;;1.50;0.75;;;;;;;;5040998;28;11216;-79
2022/09/17 04:46:17;;;;;;;;;0.00;0.00;;;;;;;;5044089;28;11286;-79
2022/09/17 04:48:46;;;;;;;;;0.00;0.00;;;;;;;;5043142;28;11259;-79
2022/09/17 04:51:13;;;;;;;;;1.75;0.00;;;;;;;;5042084;28;11181;-79
2022/09/17 04:53:41;;;;;;;;;2.50;2.25;;;;;;;;5018546;28;11084;-78
2022/09/17 04:56:08;;;;;;;;;0.00;0.00;;;;;;;;5044629;28;11173;-79
2022/09/17 04:58:35;;;;;;;;;0.00;0.00;;;;;;;;5042218;28;11144;-80
2022/09/17 05:01:02;;;;;;;;;0.00;0.00;;;;;;;;5040664;28;11842;-79
2022/09/17 05:03:30;;;;;;;;;0.00;0.00;;;;;;;;5040506;28;10968;-79
2022/09/17 05:05:59;;;;;;;;;1.00;1.00;;;;;;;;5041308;28;11171;-80
2022/09/17 05:08:26;;;;;;;;;0.50;0.00;;;;;;;;5043856;28;10976;-79
2022/09/17 05:10:53;;;;;;;;;0.00;0.00;;;;;;;;5042860;28;10900;-78
2022/09/17 05:13:20;;;;;;;;;1.00;1.00;;;;;;;;5040444;28;10919;-78
2022/09/17 05:15:48;;;;;;;;;2.50;0.00;;;;;;;;5039427;28;10952;-79
2022/09/17 05:18:15;;;;;;;;;0.75;0.75;;;;;;;;5043649;28;11013;-79
2022/09/17 05:20:43;;;;;;;;;0.00;0.00;;;;;;;;5038574;28;11781;-81
2022/09/17 05:23:12;;;;;;;;;0.00;0.00;;;;;;;;5039037;28;11053;-79
2022/09/17 05:25:39;;;;;;;;;0.00;0.00;;;;;;;;5040624;28;10984;-74
2022/09/17 05:28:07;;;;;;;;;0.75;0.75;;;;;;;;5046909;28;10971;-76
2022/09/17 05:30:34;;;;;;;;;0.00;0.00;;;;;;;;5041948;28;10777;-75
2022/09/17 05:33:03;;;;;;;;;0.00;0.00;;;;;;;;5042069;28;10838;-77
2022/09/17 05:35:31;;;;;;;;;0.75;0.75;;;;;;;;5043709;28;10838;-77
2022/09/17 05:38:03;;;;;;;;;1.00;0.00;;;;;;;;5042890;28;10924;-79
2022/09/17 05:40:36;;;;;;;;;1.00;0.00;;;;;;;;5044397;28;10975;-75
2022/09/17 05:43:05;;;;;;;;;1.00;1.00;;;;;;;;5042332;28;10946;-79
2022/09/17 05:45:33;;;;;;;;;0.50;0.50;;;;;;;;5041946;28;10901;-76
2022/09/17 05:48:03;;;;;;;;;0.50;0.50;;;;;;;;5038591;28;11673;-75
2022/09/17 05:50:34;;;;;;;;;2.00;1.00;;;;;;;;5039882;28;10905;-75
2022/09/17 05:53:05;;;;;;;;;0.25;0.25;;;;;;;;5038627;28;10873;-77
2022/09/17 05:55:35;;;;;;;;;0.00;0.00;;;;;;;;5039206;28;11693;-79
2022/09/17 05:58:08;;;;;;;;;2.00;1.00;;;;;;;;5043653;28;11464;-80
2022/09/17 06:00:36;;;;;;;;;3.00;0.00;;;;;;;;5041493;28;10765;-77
2022/09/17 06:03:03;;;;;;;;;1.50;0.00;;;;;;;;5042469;28;10963;-78
2022/09/17 06:05:31;;;;;;;;;0.00;0.00;;;;;;;;5019296;28;10891;-79
2022/09/17 06:07:58;;;;;;;;;2.00;0.00;;;;;;;;5040653;28;10689;-78
2022/09/17 06:10:27;;;;;;;;;0.00;0.00;;;;;;;;5039828;28;10833;-79
2022/09/17 06:12:59;;;;;;;;;2.00;0.00;;;;;;;;5041848;28;10794;-79
2022/09/17 06:15:27;;;;;;;;;0.00;0.00;;;;;;;;5039304;28;10620;-78
2022/09/17 06:17:55;;;;;;;;;0.00;0.00;;;;;;;;5038471;28;10677;-78
2022/09/17 06:20:24;;;;;;;;;2.00;0.00;;;;;;;;5035751;28;10532;-78
2022/09/17 06:22:57;;;;;;;;;0.25;0.25;;;;;;;;5042444;28;10765;-77
2022/09/17 06:25:25;;;;;;;;;0.00;0.00;;;;;;;;5037427;28;10545;-77
2022/09/17 06:27:52;;;;;;;;;0.00;0.00;;;;;;;;5042392;28;11316;-77
2022/09/17 06:30:21;;;;;;;;;1.25;0.75;;;;;;;;5037682;28;11338;-78
2022/09/17 06:32:48;;;;;;;;;0.00;0.00;;;;;;;;5038851;28;10600;-78
2022/09/17 06:35:16;;;;;;;;;0.00;0.00;;;;;;;;5041760;28;10548;-82
2022/09/17 06:37:43;;;;;;;;;0.50;0.00;;;;;;;;5043367;28;10651;-77
2022/09/17 06:40:10;;;;;;;;;0.00;0.00;;;;;;;;5053703;28;10527;-78
2022/09/17 06:42:38;;;;;;;;;0.00;0.00;;;;;;;;5021488;28;10720;-79
2022/09/17 06:45:06;;;;;;;;;0.00;0.00;;;;;;;;5043413;28;11207;-77
2022/09/17 06:47:34;;;;;;;;;0.00;0.00;;;;;;;;5040323;28;11324;-74
2022/09/17 06:50:02;;;;;;;;;0.00;0.00;;;;;;;;5040800;28;10313;-81
2022/09/17 06:52:29;;;;;;;;;0.00;0.00;;;;;;;;5039584;28;11175;-74
2022/09/17 06:54:57;;;;;;;;;0.50;0.00;;;;;;;;5039528;28;10427;-73
2022/09/17 06:57:24;;;;;;;;;1.75;0.00;;;;;;;;5046432;28;10322;-72
2022/09/17 06:59:51;;;;;;;;;1.00;1.00;;;;;;;;5039131;28;10998;-74
2022/09/17 07:02:19;;;;;;;;;4.25;2.25;;;;;;;;5041303;28;10495;-73
2022/09/17 07:04:48;;;;;;;;;1.25;0.75;;;;;;;;5044640;28;10537;-73
2022/09/17 07:07:15;;;;;;;;;0.50;0.50;;;;;;;;5042484;28;10555;-74
2022/09/17 07:09:42;;;;;;;;;0.00;0.00;;;;;;;;5042369;28;10382;-73
2022/09/17 07:12:09;;;;;;;;;0.00;0.00;;;;;;;;5025580;28;10280;-73
2022/09/17 07:14:37;;;;;;;;;0.00;0.00;;;;;;;;5043788;28;10169;-73
2022/09/17 07:17:04;;;;;;;;;0.00;0.00;;;;;;;;5037754;28;10083;-74
2022/09/17 07:19:31;;;;;;;;;0.00;0.00;;;;;;;;5043607;28;10019;-74
2022/09/17 07:22:00;;;;;;;;;0.25;0.25;;;;;;;;5042284;28;10095;-72
2022/09/17 07:24:27;;;;;;;;;0.25;0.25;;;;;;;;5043665;28;9898;-73
2022/09/17 07:26:54;;;;;;;;;2.00;0.00;;;;;;;;5040302;28;9772;-73
2022/09/17 07:29:25;;;;;;;;;0.00;0.00;;;;;;;;5043584;28;9775;-73
2022/09/17 07:31:52;;;;;;;;;0.00;0.00;;;;;;;;5041852;28;9727;-74
2022/09/17 07:34:19;;;;;;;;;0.00;0.00;;;;;;;;5036509;28;9735;-74
2022/09/17 07:36:47;;;;;;;;;1.50;1.00;;;;;;;;5042907;28;9958;-74
2022/09/17 07:39:15;;;;;;;;;2.00;0.00;;;;;;;;5042375;28;10419;-73
2022/09/17 07:41:43;;;;;;;;;0.00;0.00;;;;;;;;5025154;28;9709;-74
2022/09/17 07:44:10;;;;;;;;;0.00;0.00;;;;;;;;5042135;28;9639;-74
2022/09/17 07:46:37;;;;;;;;;1.00;0.00;;;;;;;;5038563;28;9553;-74
2022/09/17 07:49:04;;;;;;;;;4.00;1.00;;;;;;;;5041090;28;9518;-74
2022/09/17 07:51:32;;;;;;;;;0.00;0.00;;;;;;;;5035404;28;9625;-73
2022/09/17 07:54:01;;;;;;;;;3.00;0.00;;;;;;;;5043775;28;9411;-73
2022/09/17 07:56:30;;;;;;;;;0.67;0.00;;;;;;;;5042078;28;9565;-73
2022/09/17 07:58:57;;;;;;;;;0.33;0.33;;;;;;;;5044167;28;9347;-73
2022/09/17 08:01:26;;;;;;;;;3.67;0.00;;;;;;;;5024033;28;9364;-73
2022/09/17 08:03:54;;;;;;;;;0.00;0.00;;;;;;;;5043774;28;9406;-73
2022/09/17 08:06:24;;;;;;;;;0.00;0.00;;;;;;;;5039198;28;9304;-74
2022/09/17 08:08:52;;;;;;;;;0.00;0.00;;;;;;;;5040645;28;9308;-73
2022/09/17 08:11:21;;;;;;;;;0.00;0.00;;;;;;;;5043020;28;9208;-74
2022/09/17 08:13:50;;;;;;;;;0.00;0.00;;;;;;;;5042035;28;9003;-73
2022/09/17 08:16:17;;;;;;;;;0.00;0.00;;;;;;;;5044263;28;9146;-74
2022/09/17 08:18:45;;;;;;;;;0.00;0.00;;;;;;;;5040379;28;8976;-74
2022/09/17 08:21:14;;;;;;;;;0.75;0.25;;;;;;;;5043760;28;9072;-74
2022/09/17 08:23:42;;;;;;;;;0.00;0.00;;;;;;;;5041262;28;8867;-74
2022/09/17 08:26:13;;;;;;;;;0.00;0.00;;;;;;;;5036851;28;9535;-74
2022/09/17 08:28:43;;;;;;;;;0.00;0.00;;;;;;;;5043436;28;9994;-74
2022/09/17 08:31:12;;;;;;;;;0.00;0.00;;;;;;;;5041055;28;8789;-74
2022/09/17 08:33:41;;;;;;;;;0.00;0.00;;;;;;;;5042411;28;9657;-73
2022/09/17 08:36:10;;;;;;;;;0.00;0.00;;;;;;;;5041520;28;8871;-74
2022/09/17 08:38:38;;;;;;;;;4.25;0.00;;;;;;;;5043137;28;8912;-74
2022/09/17 08:41:18;;;;;;;;;0.50;0.00;;;;;;;;5041244;28;8846;-74
2022/09/17 08:43:51;;;;;;;;;0.00;0.00;;;;;;;;5043310;28;8971;-74
2022/09/17 08:46:19;;;;;;;;;1.00;1.00;;;;;;;;5045693;28;8855;-74
2022/09/17 08:48:51;;;;;;;;;1.00;1.00;;;;;;;;5043435;28;8903;-74
2022/09/17 08:51:30;;;;;;;;;1.75;0.25;;;;;;;;5046781;28;8870;-74
2022/09/17 08:54:01;;;;;;;;;1.75;0.75;;;;;;;;5045225;28;9666;-74
2022/09/17 08:56:31;;;;;;;;;0.00;0.00;;;;;;;;5045886;28;8904;-74
2022/09/17 08:59:04;;;;;;;;;2.25;0.00;;;;;;;;5040227;28;8851;-74
2022/09/17 09:01:41;;;;;;;;;0.50;0.00;;;;;;;;5026536;28;8823;-74
2022/09/17 09:04:35;;;;;;;;;0.00;0.00;;;;;;;;5045634;28;9648;-74
2022/09/17 09:07:06;;;;;;;;;0.00;0.00;;;;;;;;5044991;28;8866;-73
2022/09/17 09:09:38;;;;;;;;;0.75;0.00;;;;;;;;5045797;28;8898;-73
2022/09/17 09:12:09;;;;;;;;;0.00;0.00;;;;;;;;5045723;28;8859;-73
2022/09/17 09:14:40;;;;;;;;;0.00;0.00;;;;;;;;5044844;28;8919;-74
2022/09/17 09:17:10;;;;;;;;;0.00;0.00;;;;;;;;5027625;28;8870;-74
2022/09/17 09:19:43;;;;;;;;;0.00;0.00;;;;;;;;5044123;28;8859;-74
2022/09/17 09:22:22;;;;;;;;;0.75;0.75;;;;;;;;5044952;28;8933;-74
2022/09/17 09:24:57;;;;;;;;;0.00;0.00;;;;;;;;5044777;28;9004;-74
2022/09/17 09:27:28;;;;;;;;;0.00;0.00;;;;;;;;5044049;28;8842;-74
2022/09/17 09:30:02;;;;;;;;;0.50;0.00;;;;;;;;5045036;28;9644;-74
2022/09/17 09:32:46;;;;;;;;;0.00;0.00;;;;;;;;5036944;28;8829;-74
2022/09/17 09:35:17;;;;;;;;;0.50;0.00;;;;;;;;5042390;28;8866;-74
2022/09/17 09:37:50;;;;;;;;;2.00;0.00;;;;;;;;5044058;28;8873;-75
2022/09/17 09:40:26;;;;;;;;;1.00;0.00;;;;;;;;5040582;28;8916;-74
2022/09/17 09:42:55;;;;;;;;;0.00;0.00;;;;;;;;5044852;28;8890;-75
2022/09/17 09:45:28;;;;;;;;;1.50;0.25;;;;;;;;5043808;28;9644;-74
2022/09/17 09:48:02;;;;;;;;;0.00;0.00;;;;;;;;5042493;28;8870;-74
2022/09/17 09:50:36;;;;;;;;;0.00;0.00;;;;;;;;5042929;28;8889;-74
2022/09/17 09:53:10;;;;;;;;;0.00;0.00;;;;;;;;5040685;28;8894;-74
2022/09/17 09:56:15;;;;;;;;;1.25;0.25;;;;;;;;5046763;28;8847;-79
2022/09/17 09:58:43;;;;;;;;;0.00;0.00;;;;;;;;5029214;28;8896;-79
2022/09/17 10:01:14;;;;;;;;;0.00;0.00;;;;;;;;5039213;28;10145;-76
2022/09/17 10:03:44;;;;;;;;;0.00;0.00;;;;;;;;5041460;28;8894;-78
2022/09/17 10:06:13;;;;;;;;;1.25;0.00;;;;;;;;5041209;28;8871;-77
2022/09/17 10:08:42;;;;;;;;;0.00;0.00;;;;;;;;5043458;28;8949;-74
2022/09/17 10:11:21;;;;;;;;;0.00;0.00;;;;;;;;5042343;28;8886;-75
2022/09/17 10:13:49;;;;;;;;;0.00;0.00;;;;;;;;5041267;28;8878;-77
2022/09/17 10:16:18;;;;;;;;;0.00;0.00;;;;;;;;5041221;28;8871;-81
2022/09/17 10:18:47;;;;;;;;;0.25;0.00;;;;;;;;5039367;28;8888;-76
2022/09/17 10:21:21;;;;;;;;;2.50;0.00;;;;;;;;5041033;28;8859;-77
2022/09/17 10:23:49;;;;;;;;;0.00;0.00;;;;;;;;5040100;28;8870;-76
2022/09/17 10:26:22;;;;;;;;;0.00;0.00;;;;;;;;5040509;28;8989;-77
2022/09/17 10:28:51;;;;;;;;;0.00;0.00;;;;;;;;5040531;28;8882;-74
2022/09/17 10:31:19;;;;;;;;;1.50;0.00;;;;;;;;5036792;28;10826;-76
2022/09/17 10:33:57;;;;;;;;;0.00;0.00;;;;;;;;5041436;28;8858;-74
2022/09/17 10:36:41;;;;;;;;;0.25;0.00;;;;;;;;5038915;28;8867;-75
2022/09/17 10:39:41;;;;;;;;;0.00;0.00;;;;;;;;5039416;28;8869;-78
2022/09/17 10:42:14;;;;;;;;;0.00;0.00;;;;;;;;5015933;28;8885;-75
2022/09/17 10:44:52;;;;;;;;;0.40;0.00;;;;;;;;5042426;28;8870;-74
2022/09/17 10:47:23;;;;;;;;;0.00;0.00;;;;;;;;5037927;28;8870;-77
2022/09/17 10:49:55;;;;;;;;;0.00;0.00;;;;;;;;5040861;28;8932;-75
2022/09/17 10:52:26;;;;;;;;;0.00;0.00;;;;;;;;5042365;28;8902;-75
2022/09/17 10:55:22;;;;;;;;;0.00;0.00;;;;;;;;5038372;28;8866;-75
2022/09/17 10:58:00;;;;;;;;;0.00;0.00;;;;;;;;5033241;28;9070;-78
2022/09/17 11:00:34;;;;;;;;;0.00;0.00;;;;;;;;5035454;28;8779;-76
2022/09/17 11:03:38;;;;;;;;;0.00;0.00;;;;;;;;5024285;28;8908;-76
2022/09/17 11:06:19;;;;;;;;;0.00;0.00;;;;;;;;5034682;28;8843;-77
2022/09/17 11:08:54;;;;;;;;;0.00;0.00;;;;;;;;5038673;28;8885;-77
2022/09/17 11:11:33;;;;;;;;;0.00;0.00;;;;;;;;5038617;28;8865;-74
2022/09/17 11:14:10;;;;;;;;;0.25;0.00;;;;;;;;5021946;28;8887;-73
2022/09/17 11:16:45;;;;;;;;;0.00;0.00;;;;;;;;5038930;28;8882;-74
2022/09/17 11:19:25;;;;;;;;;0.00;0.00;;;;;;;;5035280;28;9638;-75
2022/09/17 11:21:57;;;;;;;;;0.00;0.00;;;;;;;;5034927;28;8862;-77
2022/09/17 11:25:03;;;;;;;;;0.00;0.00;;;;;;;;5037187;28;8896;-76
2022/09/17 11:27:48;;;;;;;;;0.00;0.00;;;;;;;;5040155;28;8843;-76
2022/09/17 11:30:18;;;;;;;;;0.00;0.00;;;;;;;;5036674;28;8863;-75
2022/09/17 11:32:55;;;;;;;;;0.00;0.00;;;;;;;;5038410;28;8850;-80
2022/09/17 11:35:25;;;;;;;;;0.00;0.00;;;;;;;;5037094;28;8882;-75
2022/09/17 11:38:01;;;;;;;;;0.00;0.00;;;;;;;;5040966;28;8873;-74
2022/09/17 11:40:35;;;;;;;;;0.00;0.00;;;;;;;;5037059;28;8862;-76
2022/09/17 11:43:05;;;;;;;;;0.00;0.00;;;;;;;;5035244;28;8859;-74
2022/09/17 11:45:36;;;;;;;;;0.00;0.00;;;;;;;;5043597;28;8866;-74
2022/09/17 11:48:07;;;;;;;;;0.00;0.00;;;;;;;;5028705;28;8906;-73
2022/09/17 11:50:40;;;;;;;;;0.00;0.00;;;;;;;;5041923;28;9637;-74
2022/09/17 11:53:16;;;;;;;;;0.00;0.00;;;;;;;;5043600;28;8842;-74
2022/09/17 11:55:48;;;;;;;;;0.00;0.00;;;;;;;;5040940;28;8874;-75
2022/09/17 11:58:21;;;;;;;;;0.60;0.00;;;;;;;;5043352;28;8858;-74
2022/09/17 12:00:54;;;;;;;;;0.00;0.00;;;;;;;;5041626;28;8813;-74
2022/09/17 12:03:26;;;;;;;;;0.00;0.00;;;;;;;;5043285;28;8874;-75
2022/09/17 12:05:56;;;;;;;;;0.00;0.00;;;;;;;;5041619;28;8867;-74
2022/09/17 12:08:27;;;;;;;;;0.00;0.00;;;;;;;;5042404;28;8866;-73
2022/09/17 12:11:04;;;;;;;;;0.00;0.00;;;;;;;;5052147;28;8875;-75
2022/09/17 12:13:36;;;;;;;;;0.00;0.00;;;;;;;;5025693;28;8882;-74
2022/09/17 12:16:11;;;;;;;;;0.00;0.00;;;;;;;;5043374;28;8862;-74
2022/09/17 12:18:49;;;;;;;;;0.00;0.00;;;;;;;;5042920;28;8916;-74
2022/09/17 12:21:21;;;;;;;;;1.00;0.00;;;;;;;;5046818;28;9625;-76
2022/09/17 12:23:53;;;;;;;;;1.00;0.00;;;;;;;;5039553;28;8862;-74
2022/09/17 12:26:34;;;;;;;;;0.00;0.00;;;;;;;;5060376;28;9009;-76
2022/09/17 12:29:06;;;;;;;;;0.00;0.00;;;;;;;;5046980;28;8878;-73
2022/09/17 12:31:39;;;;;;;;;0.00;0.00;;;;;;;;5043950;28;8799;-74
2022/09/17 12:34:23;;;;;;;;;1.00;0.00;;;;;;;;5046442;28;9037;-74
2022/09/17 12:36:58;;;;;;;;;0.00;0.00;;;;;;;;5036907;28;8854;-76
2022/09/17 12:40:08;;;;;;;;;0.00;0.00;;;;;;;;5026630;28;8851;-74
2022/09/17 12:42:52;;;;;;;;;0.00;0.00;;;;;;;;5041256;28;8904;-74
2022/09/17 12:45:36;;;;;;;;;0.00;0.00;;;;;;;;5046452;28;8858;-74
2022/09/17 12:48:32;;;;;;;;;0.00;0.00;;;;;;;;5043690;28;8948;-73
2022/09/17 12:51:09;;;;;;;;;0.00;0.00;;;;;;;;5044943;28;8909;-74
2022/09/17 12:53:38;;;;;;;;;0.00;0.00;;;;;;;;5045204;28;8866;-75
2022/09/17 12:56:15;;;;;;;;;0.00;0.00;;;;;;;;5036625;28;9617;-74
2022/09/17 12:58:54;;;;;;;;;0.00;0.00;;;;;;;;5046251;28;8862;-76
2022/09/17 13:01:27;;;;;;;;;0.60;0.00;;;;;;;;5044339;28;10021;-74
2022/09/17 13:03:58;;;;;;;;;0.00;0.00;;;;;;;;5049194;28;8874;-75
2022/09/17 13:06:53;;;;;;;;;0.00;0.00;;;;;;;;5048682;28;8867;-74
2022/09/17 13:09:51;;;;;;;;;0.00;0.00;;;;;;;;5045171;28;8874;-75
2022/09/17 13:12:26;;;;;;;;;0.00;0.00;;;;;;;;5037599;28;8894;-75
2022/09/17 13:15:39;;;;;;;;;0.00;0.00;;;;;;;;5041929;28;8878;-76
2022/09/17 13:18:13;;;;;;;;;1.00;0.00;;;;;;;;5022595;28;8878;-79
2022/09/17 13:20:48;;;;;;;;;0.00;0.00;;;;;;;;5041680;28;8866;-76
2022/09/17 13:23:16;;;;;;;;;0.00;0.00;;;;;;;;5018206;28;8850;-76
2022/09/17 13:25:53;;;;;;;;;1.00;0.00;;;;;;;;5035948;28;8875;-78
2022/09/17 13:28:22;;;;;;;;;0.00;0.00;;;;;;;;5040133;28;8888;-76
2022/09/17 13:30:58;;;;;;;;;0.00;0.00;;;;;;;;5033007;28;8822;-75
2022/09/17 13:33:51;;;;;;;;;0.00;0.00;;;;;;;;5034041;28;8877;-75
2022/09/17 13:36:47;;;;;;;;;0.00;0.00;;;;;;;;5038941;28;8888;-75
2022/09/17 13:39:43;;;;;;;;;0.00;0.00;;;;;;;;5039610;28;8858;-75
2022/09/17 13:42:16;;;;;;;;;0.00;0.00;;;;;;;;5016499;28;9677;-76
2022/09/17 13:44:50;;;;;;;;;0.00;0.00;;;;;;;;5041610;28;8866;-75
2022/09/17 13:47:21;;;;;;;;;0.00;0.00;;;;;;;;5042057;28;8890;-75
2022/09/17 13:49:52;;;;;;;;;0.00;0.00;;;;;;;;5033583;28;8894;-75
2022/09/17 13:52:38;;;;;;;;;1.00;0.00;;;;;;;;5041619;28;8897;-75
2022/09/17 13:55:07;;;;;;;;;0.00;0.00;;;;;;;;5043409;28;8859;-77
2022/09/17 13:57:47;;;;;;;;;0.00;0.00;;;;;;;;5041511;28;8876;-75
2022/09/17 14:00:45;;;;;;;;;0.00;0.00;;;;;;;;5036109;28;10123;-76
2022/09/17 14:03:47;;;;;;;;;0.00;0.00;;;;;;;;5040547;28;8977;-78
2022/09/17 14:06:52;;;;;;;;;0.00;0.00;;;;;;;;5032944;28;8920;-77
2022/09/17 14:09:52;;;;;;;;;0.00;0.00;;;;;;;;5034436;28;8870;-75
2022/09/17 14:12:52;;;;;;;;;0.00;0.00;;;;;;;;5031497;28;8938;-75
2022/09/17 14:15:51;;;;;;;;;0.00;0.00;;;;;;;;5039949;28;8936;-77
2022/09/17 14:18:45;;;;;;;;;0.00;0.00;;;;;;;;5040097;28;8962;-75
2022/09/17 14:21:24;;;;;;;;;0.00;0.00;;;;;;;;5036205;28;8854;-77
2022/09/17 14:23:56;;;;;;;;;0.00;0.00;;;;;;;;5038324;28;8904;-77
2022/09/17 14:26:55;;;;;;;;;0.00;0.00;;;;;;;;5041334;28;8977;-76
2022/09/17 14:29:42;;;;;;;;;0.00;0.00;;;;;;;;5011614;28;8900;-76
2022/09/17 14:32:15;;;;;;;;;0.00;0.00;;;;;;;;5029621;28;8832;-75
2022/09/17 14:34:43;;;;;;;;;0.00;0.00;;;;;;;;5039592;28;8863;-76
2022/09/17 14:37:14;;;;;;;;;1.00;0.00;;;;;;;;5042327;28;8882;-76
2022/09/17 14:39:42;;;;;;;;;0.00;0.00;;;;;;;;5037341;28;8870;-75
2022/09/17 14:42:16;;;;;;;;;0.00;0.00;;;;;;;;5036634;28;8874;-75
2022/09/17 14:44:50;;;;;;;;;0.00;0.00;;;;;;;;5035346;28;8909;-76
2022/09/17 14:47:19;;;;;;;;;0.00;0.00;;;;;;;;5042048;28;8898;-74
2022/09/17 14:49:47;;;;;;;;;0.40;0.00;;;;;;;;5034697;28;8962;-74
2022/09/17 14:52:26;;;;;;;;;0.00;0.00;;;;;;;;5036944;28;8889;-72
2022/09/17 14:55:17;;;;;;;;;0.00;0.00;;;;;;;;5040580;28;9308;-74
2022/09/17 14:57:46;;;;;;;;;0.00;0.00;;;;;;;;5039493;28;8858;-76
2022/09/17 15:00:20;;;;;;;;;0.00;0.00;;;;;;;;5032652;28;8858;-74
2022/09/17 15:02:53;;;;;;;;;0.00;0.00;;;;;;;;5036844;28;8854;-75
2022/09/17 15:05:27;;;;;;;;;0.00;0.00;;;;;;;;5040131;28;8886;-74
2022/09/17 15:08:12;;;;;;;;;0.00;0.00;;;;;;;;5041995;28;8973;-76
2022/09/17 15:10:48;;;;;;;;;0.00;0.00;;;;;;;;5032656;28;8862;-74
2022/09/17 15:13:17;;;;;;;;;0.00;0.00;;;;;;;;5041620;28;8866;-75
2022/09/17 15:15:53;;;;;;;;;0.00;0.00;;;;;;;;5043010;28;8931;-77
2022/09/17 15:18:22;;;;;;;;;2.00;0.00;;;;;;;;5031866;28;8901;-77
2022/09/17 15:20:50;;;;;;;;;0.00;0.00;;;;;;;;5042227;28;8908;-76
2022/09/17 15:23:20;;;;;;;;;1.00;0.00;;;;;;;;5042931;28;8979;-75
2022/09/17 15:25:51;;;;;;;;;0.00;0.00;;;;;;;;5042695;28;8874;-75